Buoy 46611

sailwx.info

Track history (hours):
 
Tides and Currents Weather Stations Pressure Air Temp Water Temp Dewpoint Dewpoint Depression Visibility Wind Speed Wind Dir Waves Ship Positions

Drifting buoy 46611

Last reported at 2014-Sep-30 16:00 UTC. Time now 2014-Sep-30 17:57 UTC.
Position N 50°17' W 140°04'.

Barometer 1023.6 mb
Water temperature 14.6 ° C

Date/timePositionNaut miles runAvg speedWind from/ knotsBaromVisibWave heightAir tempDewpointWater temp
2014-Sep-30 16:00N 50°17' W 140°04'1 0.9 1023.6 14.6
2014-Sep-30 15:00N 50°18' W 140°02'1 1.3 1023.1 14.6
2014-Sep-30 14:00N 50°18' W 140°04'0 0.2 1022.8 14.6
2014-Sep-30 13:00N 50°18' W 140°04'1 0.7 1022.7 14.6
2014-Sep-30 12:00N 50°18' W 140°05'0 0.0 1022.5 14.6
2014-Sep-30 11:00N 50°18' W 140°05'0 0.0 1022.4 14.6
2014-Sep-30 10:00N 50°18' W 140°05'1 0.4 1022.1 14.6
2014-Sep-30 07:00N 50°17' W 140°06'1 0.6 1021.2 14.6
2014-Sep-30 05:00N 50°17' W 140°04'1 1.2 1020.5 14.6
2014-Sep-30 04:00N 50°18' W 140°03'0 0.0 1020.0 14.6
2014-Sep-30 03:00N 50°18' W 140°03'1 1.2 1019.3 14.6
2014-Sep-30 02:00N 50°19' W 140°03'0 0.4 1018.9 14.7
2014-Sep-30 01:00N 50°20' W 140°03'1 1.3 1018.6 14.7
2014-Sep-30 00:00N 50°20' W 140°05'1 1.0 1018.4 14.8
2014-Sep-29 23:00N 50°21' W 140°04'2 2.0 1018.1 14.8
2014-Sep-29 22:00N 50°21' W 140°07'0 0.0 1017.9 14.7
2014-Sep-29 21:00N 50°21' W 140°07'0 0.0 1017.8 14.7
2014-Sep-29 20:00N 50°21' W 140°07'2 1.5 1017.1 14.7
2014-Sep-29 19:00N 50°21' W 140°09'1 0.4 1016.8 14.7
2014-Sep-29 17:00N 50°20' W 140°09'0 0.5 1015.6 14.6
2014-Sep-29 16:00N 50°20' W 140°08'0 0.2 1015.1 14.6
2014-Sep-29 15:00N 50°20' W 140°08'1 0.5 1014.7 14.6
2014-Sep-29 14:00N 50°20' W 140°08'1 0.9 1014.2 14.6
2014-Sep-29 13:00N 50°21' W 140°07'1 1.3 1013.6 14.6
2014-Sep-29 12:00N 50°22' W 140°07'3 3.5 1013.2 14.6
2014-Sep-29 11:00N 50°25' W 140°08'0 0.0 1012.9 14.7
2014-Sep-29 10:00N 50°25' W 140°08'0 0.0 1012.3 14.7
2014-Sep-29 08:00N 50°25' W 140°08'0 0.0 1011.6 14.7
2014-Sep-29 07:00N 50°25' W 140°08'2 1.5 1011.3 14.7
2014-Sep-29 06:00N 50°25' W 140°11'4 1.8 1010.6 14.7
2014-Sep-29 04:00N 50°24' W 140°16'0 0.0 1009.5 14.7
2014-Sep-29 02:00N 50°24' W 140°16'2 2.1 1008.8 14.8
2014-Sep-29 01:00N 50°24' W 140°13'0 0.2 1008.3 14.8
2014-Sep-28 23:00N 50°24' W 140°13'1 0.8 1008.2 14.9
2014-Sep-28 22:00N 50°23' W 140°13'1 0.8 1007.9 14.9
2014-Sep-28 21:00N 50°23' W 140°12'1 0.7 1007.6 14.9
2014-Sep-28 19:00N 50°24' W 140°13'4 1.9 1007.0 14.8
2014-Sep-28 17:00N 50°28' W 140°15'0 0.0 1005.7 14.7
2014-Sep-28 16:00N 50°28' W 140°15'0 0.0 1005.2 14.7
2014-Sep-28 15:00N 50°28' W 140°15'2 1.6 1004.6 14.7
2014-Sep-28 14:00N 50°27' W 140°17'2 2.0 1004.2 14.7
2014-Sep-28 13:00N 50°26' W 140°20'0 0.0 1003.9 14.7
2014-Sep-28 12:00N 50°26' W 140°20'4 3.8 1004.0 14.7
2014-Sep-28 11:00N 50°22' W 140°19'0 0.0 1004.1 14.7
2014-Sep-28 07:00N 50°22' W 140°19'1 0.9 1004.6 14.8
2014-Sep-28 06:00N 50°22' W 140°17'1 0.9 1004.8 14.8
2014-Sep-28 05:00N 50°23' W 140°18'3 1.3 1004.6 14.8
2014-Sep-28 03:00N 50°24' W 140°15'1 0.5 1003.8 14.8
2014-Sep-28 01:00N 50°25' W 140°17'2 1.5 1003.4 14.8
2014-Sep-28 00:00N 50°26' W 140°18'0 0.1 1002.8 14.9
2014-Sep-27 23:00N 50°26' W 140°18'2 0.9 1002.2 14.9
2014-Sep-27 21:00N 50°25' W 140°21'2 2.0 1003.3 14.9
2014-Sep-27 20:00N 50°23' W 140°23'0 0.0 1003.9 14.9
2014-Sep-27 19:00N 50°23' W 140°23'4 1.9 1004.3 14.9
2014-Sep-27 17:00N 50°20' W 140°22'0 0.0 1005.1 14.9
2014-Sep-27 16:00N 50°20' W 140°22'1 1.0 1006.0 14.9
2014-Sep-27 15:00N 50°20' W 140°20'1 0.9 1006.7 14.9
2014-Sep-27 14:00N 50°20' W 140°19'0 0.5 1007.2 14.9
2014-Sep-27 13:00N 50°21' W 140°19'0 0.0 1007.7 14.9
2014-Sep-27 11:00N 50°21' W 140°19'1 0.6 1008.3 14.9
2014-Sep-27 09:00N 50°22' W 140°20'2 1.0 1008.4 14.9
2014-Sep-27 07:00N 50°21' W 140°23'0 0.0 1008.4 14.9
2014-Sep-27 06:00N 50°21' W 140°23'0 0.0 1008.1 14.9
2014-Sep-27 05:00N 50°21' W 140°23'0 0.0 1007.3 14.9
2014-Sep-27 04:00N 50°21' W 140°23'0 0.5 1006.9 14.9
2014-Sep-27 03:00N 50°21' W 140°23'0 0.0 1007.0 14.9
2014-Sep-27 02:00N 50°21' W 140°23'1 1.0 1006.1 14.9
2014-Sep-27 01:00N 50°20' W 140°24'2 0.8 1005.7 14.9
2014-Sep-26 23:00N 50°19' W 140°21'1 0.8 1006.3 14.9
2014-Sep-26 22:00N 50°19' W 140°20'0 0.0 1007.5 14.9
2014-Sep-26 21:00N 50°19' W 140°20'1 0.5 1008.0 14.9
2014-Sep-26 19:00N 50°19' W 140°21'0 0.3 1009.3 14.9
2014-Sep-26 18:00N 50°20' W 140°21'0 0.0 1009.5 14.9
2014-Sep-26 17:00N 50°20' W 140°21'2 1.1 1009.5 14.9
2014-Sep-26 15:00N 50°20' W 140°25'0 0.0 1010.5 14.9
2014-Sep-26 14:00N 50°20' W 140°25'1 1.0 1010.3 14.9
2014-Sep-26 13:00N 50°19' W 140°24'0 0.0 1010.4 14.9
2014-Sep-26 12:00N 50°19' W 140°24'2 1.9 1010.5 14.9
2014-Sep-26 11:00N 50°18' W 140°22'0 0.0 1010.3 14.9
2014-Sep-26 10:00N 50°18' W 140°22'0 0.0 1010.4 14.9
2014-Sep-26 08:00N 50°18' W 140°22'2 1.9 1010.3 14.9
2014-Sep-26 07:00N 50°19' W 140°19'0 0.0 1010.1 14.9
2014-Sep-26 06:00N 50°19' W 140°19'3 2.7 1009.7 14.9
2014-Sep-26 05:00N 50°22' W 140°21'0 0.1 1009.6 14.9
2014-Sep-26 04:00N 50°21' W 140°21'0 0.0 1009.3 14.9
2014-Sep-26 03:00N 50°21' W 140°21'1 1.4 1008.7 14.9
2014-Sep-26 02:00N 50°23' W 140°21'1 0.7 1008.2 14.9
2014-Sep-26 01:00N 50°23' W 140°22'1 1.0 1007.7 14.9
2014-Sep-26 00:00N 50°24' W 140°24'0 0.1 1007.4 15.0
2014-Sep-25 23:00N 50°24' W 140°24'1 0.4 1007.1 14.9
2014-Sep-25 21:00N 50°23' W 140°25'1 1.3 1007.1 14.9
2014-Sep-25 20:00N 50°24' W 140°23'0 0.0 1006.9 14.9
2014-Sep-25 19:00N 50°24' W 140°23'0 0.0 1006.8 14.9
2014-Sep-25 18:00N 50°24' W 140°23'0 0.0 1006.6 14.9
2014-Sep-25 17:00N 50°24' W 140°23'2 1.6 1006.4 14.9
2014-Sep-25 16:00N 50°25' W 140°21'1 0.7 1006.0 14.9
2014-Sep-25 15:00N 50°25' W 140°20'2 2.3 1005.6 14.9
2014-Sep-25 14:00N 50°27' W 140°20'4 1.8 1005.2 14.9
2014-Sep-25 12:00N 50°30' W 140°22'2 0.8 1004.6 15.0
2014-Sep-25 10:00N 50°32' W 140°24'0 0.0 1004.2 15.0
2014-Sep-25 08:00N 50°32' W 140°24'1 0.6 1003.8 15.0
2014-Sep-25 07:00N 50°32' W 140°24'0 0.4 1003.6 15.0
2014-Sep-25 06:00N 50°32' W 140°25'0 0.0 1003.1 15.0
2014-Sep-25 05:00N 50°32' W 140°25'1 1.4 1002.8 15.0
2014-Sep-25 04:00N 50°30' W 140°25'4 3.8 1002.1 15.1
2014-Sep-25 03:00N 50°32' W 140°20'3 1.3 1001.3 15.2
2014-Sep-25 01:00N 50°34' W 140°17'0 0.3 999.9 15.3
2014-Sep-25 00:00N 50°34' W 140°17'2 1.6 999.3 15.3
2014-Sep-24 23:00N 50°35' W 140°15'2 1.7 998.6 15.3
2014-Sep-24 22:00N 50°37' W 140°15'2 1.0 998.1 15.3
2014-Sep-24 20:00N 50°39' W 140°15'2 2.2 997.1 15.4
2014-Sep-24 19:00N 50°40' W 140°17'1 0.4 996.4 15.4
2014-Sep-24 16:00N 50°41' W 140°17'0 0.2 994.9 15.4
2014-Sep-24 15:00N 50°41' W 140°17'0 0.4 994.2 15.5
2014-Sep-24 14:00N 50°41' W 140°18'1 1.3 993.6 15.5
2014-Sep-24 13:00N 50°40' W 140°16'3 2.5 992.8 15.5
2014-Sep-24 12:00N 50°40' W 140°12'7 3.5 992.3 15.6
2014-Sep-24 10:00N 50°44' W 140°03'3 0.7 991.5 15.6
2014-Sep-24 06:00N 50°47' W 140°03'0 0.0 991.3 15.7
2014-Sep-24 05:00N 50°47' W 140°03'1 1.3 991.7 15.7
2014-Sep-24 04:00N 50°48' W 140°03'1 1.3 991.9 15.7
2014-Sep-24 03:00N 50°49' W 140°01'3 3.0 992.6 15.7
2014-Sep-24 02:00N 50°49' W 140°06'1 0.4 993.4 15.7
2014-Sep-24 00:00N 50°49' W 140°08'2 2.0 994.5 15.8
2014-Sep-23 23:00N 50°47' W 140°05'0 0.0 994.8 15.8
2014-Sep-23 22:00N 50°47' W 140°05'2 1.9 995.5 15.8
2014-Sep-23 21:00N 50°47' W 140°03'0 0.3 996.0 15.8
2014-Sep-23 20:00N 50°46' W 140°03'5 1.3 996.4 15.8
2014-Sep-23 16:00N 50°49' W 139°56'1 0.7 998.4 15.8
2014-Sep-23 14:00N 50°49' W 139°53'0 0.0 999.3 15.8
2014-Sep-23 13:00N 50°49' W 139°53'0 0.0 999.6 15.8
2014-Sep-23 12:00N 50°49' W 139°53'4 4.0 1000.0 15.8
2014-Sep-23 11:00N 50°50' W 139°59'2 2.4 1000.6 15.8
2014-Sep-23 10:00N 50°48' W 140°01'0 0.0 1001.3 15.9
2014-Sep-23 09:00N 50°48' W 140°01'0 0.0 1001.7 15.9
2014-Sep-23 07:00N 50°48' W 140°01'2 1.5 1002.6 15.9
2014-Sep-23 06:00N 50°47' W 140°01'0 0.0 1002.8 15.9
2014-Sep-23 05:00N 50°47' W 140°01'4 3.7 1003.4 15.9
2014-Sep-23 04:00N 50°47' W 139°55'2 0.8 1003.8 15.9
2014-Sep-23 02:00N 50°47' W 139°57'1 1.0 1005.0 15.9
2014-Sep-23 01:00N 50°47' W 139°56'1 0.9 1005.6 16.0
2014-Sep-23 00:00N 50°48' W 139°56'1 0.5 1006.1 16.0
2014-Sep-22 22:00N 50°49' W 139°55'2 2.0 1007.0 16.0
2014-Sep-22 21:00N 50°50' W 139°58'1 0.6 1007.1 15.9
2014-Sep-22 20:00N 50°50' W 139°59'3 2.9 1007.4 15.9
2014-Sep-22 19:00N 50°49' W 140°03'0 0.0 1007.5 15.9
2014-Sep-22 18:00N 50°49' W 140°03'2 0.8 1007.6 15.9
2014-Sep-22 16:00N 50°48' W 140°03'1 0.3 1007.3 15.9
2014-Sep-22 14:00N 50°48' W 140°02'1 1.0 1007.1 15.9
2014-Sep-22 13:00N 50°47' W 140°02'0 0.4 1007.2 15.9
2014-Sep-22 12:00N 50°47' W 140°01'3 1.5 1007.4 15.9
2014-Sep-22 10:00N 50°49' W 139°59'0 0.0 1007.2 15.9
2014-Sep-22 08:00N 50°49' W 139°59'1 1.5 1007.0 15.9
2014-Sep-22 07:00N 50°50' W 140°00'3 0.9 1006.8 15.9
2014-Sep-22 04:00N 50°51' W 140°04'2 2.5 1005.5 16.0
2014-Sep-22 03:00N 50°51' W 140°08'0 0.0 1005.1 16.0
2014-Sep-22 02:00N 50°51' W 140°08'1 0.7 1004.7 16.0
2014-Sep-22 01:00N 50°50' W 140°09'1 0.8 1004.3 16.0
2014-Sep-22 00:00N 50°49' W 140°08'1 1.3 1003.9 16.0
2014-Sep-21 23:00N 50°48' W 140°09'2 1.6 1003.3 16.0
2014-Sep-21 22:00N 50°47' W 140°07'2 0.8 1002.7 16.0
2014-Sep-21 19:00N 50°48' W 140°04'2 2.3 1000.4 16.0
2014-Sep-21 18:00N 50°50' W 140°02'3 0.8 999.8 16.0
2014-Sep-21 15:00N 50°52' W 140°04'1 1.3 997.5 15.9
2014-Sep-21 14:00N 50°52' W 140°06'1 1.4 996.2 15.9
2014-Sep-21 13:00N 50°52' W 140°08'2 1.0 995.6 15.9
2014-Sep-21 11:00N 50°52' W 140°11'3 0.6 996.3 15.9
2014-Sep-21 06:00N 50°49' W 140°09'1 1.4 1001.0 16.0
2014-Sep-21 05:00N 50°48' W 140°10'2 1.5 1001.6 15.9
2014-Sep-21 04:00N 50°49' W 140°09'0 0.0 1002.2 15.9
2014-Sep-21 03:00N 50°49' W 140°09'0 0.3 1003.1 16.0
2014-Sep-21 02:00N 50°49' W 140°09'1 0.9 1004.0 16.0
2014-Sep-21 01:00N 50°50' W 140°08'1 0.6 1004.2 16.0
2014-Sep-21 00:00N 50°50' W 140°09'2 1.7 1005.2 16.0
2014-Sep-20 23:00N 50°51' W 140°10'0 0.0 1006.0 16.0
2014-Sep-20 22:00N 50°51' W 140°10'1 1.1 1005.9 16.0
2014-Sep-20 21:00N 50°52' W 140°11'2 1.7 1005.8 16.0
2014-Sep-20 20:00N 50°52' W 140°13'2 2.1 1006.2 16.0
2014-Sep-20 19:00N 50°51' W 140°17'1 0.6 1006.0 16.0
2014-Sep-20 18:00N 50°51' W 140°17'0 0.0 1005.7 16.0
2014-Sep-20 17:00N 50°51' W 140°17'   1005.6 16.0
Track history (hours):
 
Tides and Currents Weather Stations Pressure Air Temp Water Temp Dewpoint Dewpoint Depression Visibility Wind Speed Wind Dir Waves Ship Positions

Drifting buoy 46611

Last reported at 2014-Sep-30 16:00 UTC. Time now 2014-Sep-30 17:57 UTC.
Position N 50°17' W 140°04'.

Barometer 1023.6 mb
Water temperature 14.6 ° C

Date/timePositionNaut miles runAvg speedWind from/ knotsBaromVisibWave heightAir tempDewpointWater temp
2014-Sep-30 16:00N 50°17' W 140°04'1 0.9 1023.6 14.6
2014-Sep-30 15:00N 50°18' W 140°02'1 1.3 1023.1 14.6
2014-Sep-30 14:00N 50°18' W 140°04'0 0.2 1022.8 14.6
2014-Sep-30 13:00N 50°18' W 140°04'1 0.7 1022.7 14.6
2014-Sep-30 12:00N 50°18' W 140°05'0 0.0 1022.5 14.6
2014-Sep-30 11:00N 50°18' W 140°05'0 0.0 1022.4 14.6
2014-Sep-30 10:00N 50°18' W 140°05'1 0.4 1022.1 14.6
2014-Sep-30 07:00N 50°17' W 140°06'1 0.6 1021.2 14.6
2014-Sep-30 05:00N 50°17' W 140°04'1 1.2 1020.5 14.6
2014-Sep-30 04:00N 50°18' W 140°03'0 0.0 1020.0 14.6
2014-Sep-30 03:00N 50°18' W 140°03'1 1.2 1019.3 14.6
2014-Sep-30 02:00N 50°19' W 140°03'0 0.4 1018.9 14.7
2014-Sep-30 01:00N 50°20' W 140°03'1 1.3 1018.6 14.7
2014-Sep-30 00:00N 50°20' W 140°05'1 1.0 1018.4 14.8
2014-Sep-29 23:00N 50°21' W 140°04'2 2.0 1018.1 14.8
2014-Sep-29 22:00N 50°21' W 140°07'0 0.0 1017.9 14.7
2014-Sep-29 21:00N 50°21' W 140°07'0 0.0 1017.8 14.7
2014-Sep-29 20:00N 50°21' W 140°07'2 1.5 1017.1 14.7
2014-Sep-29 19:00N 50°21' W 140°09'1 0.4 1016.8 14.7
2014-Sep-29 17:00N 50°20' W 140°09'0 0.5 1015.6 14.6
2014-Sep-29 16:00N 50°20' W 140°08'0 0.2 1015.1 14.6
2014-Sep-29 15:00N 50°20' W 140°08'1 0.5 1014.7 14.6
2014-Sep-29 14:00N 50°20' W 140°08'1 0.9 1014.2 14.6
2014-Sep-29 13:00N 50°21' W 140°07'1 1.3 1013.6 14.6
2014-Sep-29 12:00N 50°22' W 140°07'3 3.5 1013.2 14.6
2014-Sep-29 11:00N 50°25' W 140°08'0 0.0 1012.9 14.7
2014-Sep-29 10:00N 50°25' W 140°08'0 0.0 1012.3 14.7
2014-Sep-29 08:00N 50°25' W 140°08'0 0.0 1011.6 14.7
2014-Sep-29 07:00N 50°25' W 140°08'2 1.5 1011.3 14.7
2014-Sep-29 06:00N 50°25' W 140°11'4 1.8 1010.6 14.7
2014-Sep-29 04:00N 50°24' W 140°16'0 0.0 1009.5 14.7
2014-Sep-29 02:00N 50°24' W 140°16'2 2.1 1008.8 14.8
2014-Sep-29 01:00N 50°24' W 140°13'0 0.2 1008.3 14.8
2014-Sep-28 23:00N 50°24' W 140°13'1 0.8 1008.2 14.9
2014-Sep-28 22:00N 50°23' W 140°13'1 0.8 1007.9 14.9
2014-Sep-28 21:00N 50°23' W 140°12'1 0.7 1007.6 14.9
2014-Sep-28 19:00N 50°24' W 140°13'4 1.9 1007.0 14.8
2014-Sep-28 17:00N 50°28' W 140°15'0 0.0 1005.7 14.7
2014-Sep-28 16:00N 50°28' W 140°15'0 0.0 1005.2 14.7
2014-Sep-28 15:00N 50°28' W 140°15'2 1.6 1004.6 14.7
2014-Sep-28 14:00N 50°27' W 140°17'2 2.0 1004.2 14.7
2014-Sep-28 13:00N 50°26' W 140°20'0 0.0 1003.9 14.7
2014-Sep-28 12:00N 50°26' W 140°20'4 3.8 1004.0 14.7
2014-Sep-28 11:00N 50°22' W 140°19'0 0.0 1004.1 14.7
2014-Sep-28 07:00N 50°22' W 140°19'1 0.9 1004.6 14.8
2014-Sep-28 06:00N 50°22' W 140°17'1 0.9 1004.8 14.8
2014-Sep-28 05:00N 50°23' W 140°18'3 1.3 1004.6 14.8
2014-Sep-28 03:00N 50°24' W 140°15'1 0.5 1003.8 14.8
2014-Sep-28 01:00N 50°25' W 140°17'2 1.5 1003.4 14.8
2014-Sep-28 00:00N 50°26' W 140°18'0 0.1 1002.8 14.9
2014-Sep-27 23:00N 50°26' W 140°18'2 0.9 1002.2 14.9
2014-Sep-27 21:00N 50°25' W 140°21'2 2.0 1003.3 14.9
2014-Sep-27 20:00N 50°23' W 140°23'0 0.0 1003.9 14.9
2014-Sep-27 19:00N 50°23' W 140°23'4 1.9 1004.3 14.9
2014-Sep-27 17:00N 50°20' W 140°22'0 0.0 1005.1 14.9
2014-Sep-27 16:00N 50°20' W 140°22'1 1.0 1006.0 14.9
2014-Sep-27 15:00N 50°20' W 140°20'1 0.9 1006.7 14.9
2014-Sep-27 14:00N 50°20' W 140°19'0 0.5 1007.2 14.9
2014-Sep-27 13:00N 50°21' W 140°19'0 0.0 1007.7 14.9
2014-Sep-27 11:00N 50°21' W 140°19'1 0.6 1008.3 14.9
2014-Sep-27 09:00N 50°22' W 140°20'2 1.0 1008.4 14.9
2014-Sep-27 07:00N 50°21' W 140°23'0 0.0 1008.4 14.9
2014-Sep-27 06:00N 50°21' W 140°23'0 0.0 1008.1 14.9
2014-Sep-27 05:00N 50°21' W 140°23'0 0.0 1007.3 14.9
2014-Sep-27 04:00N 50°21' W 140°23'0 0.5 1006.9 14.9
2014-Sep-27 03:00N 50°21' W 140°23'0 0.0 1007.0 14.9
2014-Sep-27 02:00N 50°21' W 140°23'1 1.0 1006.1 14.9
2014-Sep-27 01:00N 50°20' W 140°24'2 0.8 1005.7 14.9
2014-Sep-26 23:00N 50°19' W 140°21'1 0.8 1006.3 14.9
2014-Sep-26 22:00N 50°19' W 140°20'0 0.0 1007.5 14.9
2014-Sep-26 21:00N 50°19' W 140°20'1 0.5 1008.0 14.9
2014-Sep-26 19:00N 50°19' W 140°21'0 0.3 1009.3 14.9
2014-Sep-26 18:00N 50°20' W 140°21'0 0.0 1009.5 14.9
2014-Sep-26 17:00N 50°20' W 140°21'2 1.1 1009.5 14.9
2014-Sep-26 15:00N 50°20' W 140°25'0 0.0 1010.5 14.9
2014-Sep-26 14:00N 50°20' W 140°25'1 1.0 1010.3 14.9
2014-Sep-26 13:00N 50°19' W 140°24'0 0.0 1010.4 14.9
2014-Sep-26 12:00N 50°19' W 140°24'2 1.9 1010.5 14.9
2014-Sep-26 11:00N 50°18' W 140°22'0 0.0 1010.3 14.9
2014-Sep-26 10:00N 50°18' W 140°22'0 0.0 1010.4 14.9
2014-Sep-26 08:00N 50°18' W 140°22'2 1.9 1010.3 14.9
2014-Sep-26 07:00N 50°19' W 140°19'0 0.0 1010.1 14.9
2014-Sep-26 06:00N 50°19' W 140°19'3 2.7 1009.7 14.9
2014-Sep-26 05:00N 50°22' W 140°21'0 0.1 1009.6 14.9
2014-Sep-26 04:00N 50°21' W 140°21'0 0.0 1009.3 14.9
2014-Sep-26 03:00N 50°21' W 140°21'1 1.4 1008.7 14.9
2014-Sep-26 02:00N 50°23' W 140°21'1 0.7 1008.2 14.9
2014-Sep-26 01:00N 50°23' W 140°22'1 1.0 1007.7 14.9
2014-Sep-26 00:00N 50°24' W 140°24'0 0.1 1007.4 15.0
2014-Sep-25 23:00N 50°24' W 140°24'1 0.4 1007.1 14.9
2014-Sep-25 21:00N 50°23' W 140°25'1 1.3 1007.1 14.9
2014-Sep-25 20:00N 50°24' W 140°23'0 0.0 1006.9 14.9
2014-Sep-25 19:00N 50°24' W 140°23'0 0.0 1006.8 14.9
2014-Sep-25 18:00N 50°24' W 140°23'0 0.0 1006.6 14.9
2014-Sep-25 17:00N 50°24' W 140°23'2 1.6 1006.4 14.9
2014-Sep-25 16:00N 50°25' W 140°21'1 0.7 1006.0 14.9
2014-Sep-25 15:00N 50°25' W 140°20'2 2.3 1005.6 14.9
2014-Sep-25 14:00N 50°27' W 140°20'4 1.8 1005.2 14.9
2014-Sep-25 12:00N 50°30' W 140°22'2 0.8 1004.6 15.0
2014-Sep-25 10:00N 50°32' W 140°24'0 0.0 1004.2 15.0
2014-Sep-25 08:00N 50°32' W 140°24'1 0.6 1003.8 15.0
2014-Sep-25 07:00N 50°32' W 140°24'0 0.4 1003.6 15.0
2014-Sep-25 06:00N 50°32' W 140°25'0 0.0 1003.1 15.0
2014-Sep-25 05:00N 50°32' W 140°25'1 1.4 1002.8 15.0
2014-Sep-25 04:00N 50°30' W 140°25'4 3.8 1002.1 15.1
2014-Sep-25 03:00N 50°32' W 140°20'3 1.3 1001.3 15.2
2014-Sep-25 01:00N 50°34' W 140°17'0 0.3 999.9 15.3
2014-Sep-25 00:00N 50°34' W 140°17'2 1.6 999.3 15.3
2014-Sep-24 23:00N 50°35' W 140°15'2 1.7 998.6 15.3
2014-Sep-24 22:00N 50°37' W 140°15'2 1.0 998.1 15.3
2014-Sep-24 20:00N 50°39' W 140°15'2 2.2 997.1 15.4
2014-Sep-24 19:00N 50°40' W 140°17'1 0.4 996.4 15.4
2014-Sep-24 16:00N 50°41' W 140°17'0 0.2 994.9 15.4
2014-Sep-24 15:00N 50°41' W 140°17'0 0.4 994.2 15.5
2014-Sep-24 14:00N 50°41' W 140°18'1 1.3 993.6 15.5
2014-Sep-24 13:00N 50°40' W 140°16'3 2.5 992.8 15.5
2014-Sep-24 12:00N 50°40' W 140°12'7 3.5 992.3 15.6
2014-Sep-24 10:00N 50°44' W 140°03'3 0.7 991.5 15.6
2014-Sep-24 06:00N 50°47' W 140°03'0 0.0 991.3 15.7
2014-Sep-24 05:00N 50°47' W 140°03'1 1.3 991.7 15.7
2014-Sep-24 04:00N 50°48' W 140°03'1 1.3 991.9 15.7
2014-Sep-24 03:00N 50°49' W 140°01'3 3.0 992.6 15.7
2014-Sep-24 02:00N 50°49' W 140°06'1 0.4 993.4 15.7
2014-Sep-24 00:00N 50°49' W 140°08'2 2.0 994.5 15.8
2014-Sep-23 23:00N 50°47' W 140°05'0 0.0 994.8 15.8
2014-Sep-23 22:00N 50°47' W 140°05'2 1.9 995.5 15.8
2014-Sep-23 21:00N 50°47' W 140°03'0 0.3 996.0 15.8
2014-Sep-23 20:00N 50°46' W 140°03'5 1.3 996.4 15.8
2014-Sep-23 16:00N 50°49' W 139°56'1 0.7 998.4 15.8
2014-Sep-23 14:00N 50°49' W 139°53'0 0.0 999.3 15.8
2014-Sep-23 13:00N 50°49' W 139°53'0 0.0 999.6 15.8
2014-Sep-23 12:00N 50°49' W 139°53'4 4.0 1000.0 15.8
2014-Sep-23 11:00N 50°50' W 139°59'2 2.4 1000.6 15.8
2014-Sep-23 10:00N 50°48' W 140°01'0 0.0 1001.3 15.9
2014-Sep-23 09:00N 50°48' W 140°01'0 0.0 1001.7 15.9
2014-Sep-23 07:00N 50°48' W 140°01'2 1.5 1002.6 15.9
2014-Sep-23 06:00N 50°47' W 140°01'0 0.0 1002.8 15.9
2014-Sep-23 05:00N 50°47' W 140°01'4 3.7 1003.4 15.9
2014-Sep-23 04:00N 50°47' W 139°55'2 0.8 1003.8 15.9
2014-Sep-23 02:00N 50°47' W 139°57'1 1.0 1005.0 15.9
2014-Sep-23 01:00N 50°47' W 139°56'1 0.9 1005.6 16.0
2014-Sep-23 00:00N 50°48' W 139°56'1 0.5 1006.1 16.0
2014-Sep-22 22:00N 50°49' W 139°55'2 2.0 1007.0 16.0
2014-Sep-22 21:00N 50°50' W 139°58'1 0.6 1007.1 15.9
2014-Sep-22 20:00N 50°50' W 139°59'3 2.9 1007.4 15.9
2014-Sep-22 19:00N 50°49' W 140°03'0 0.0 1007.5 15.9
2014-Sep-22 18:00N 50°49' W 140°03'2 0.8 1007.6 15.9
2014-Sep-22 16:00N 50°48' W 140°03'1 0.3 1007.3 15.9
2014-Sep-22 14:00N 50°48' W 140°02'1 1.0 1007.1 15.9
2014-Sep-22 13:00N 50°47' W 140°02'0 0.4 1007.2 15.9
2014-Sep-22 12:00N 50°47' W 140°01'3 1.5 1007.4 15.9
2014-Sep-22 10:00N 50°49' W 139°59'0 0.0 1007.2 15.9
2014-Sep-22 08:00N 50°49' W 139°59'1 1.5 1007.0 15.9
2014-Sep-22 07:00N 50°50' W 140°00'3 0.9 1006.8 15.9
2014-Sep-22 04:00N 50°51' W 140°04'2 2.5 1005.5 16.0
2014-Sep-22 03:00N 50°51' W 140°08'0 0.0 1005.1 16.0
2014-Sep-22 02:00N 50°51' W 140°08'1 0.7 1004.7 16.0
2014-Sep-22 01:00N 50°50' W 140°09'1 0.8 1004.3 16.0
2014-Sep-22 00:00N 50°49' W 140°08'1 1.3 1003.9 16.0
2014-Sep-21 23:00N 50°48' W 140°09'2 1.6 1003.3 16.0
2014-Sep-21 22:00N 50°47' W 140°07'2 0.8 1002.7 16.0
2014-Sep-21 19:00N 50°48' W 140°04'2 2.3 1000.4 16.0
2014-Sep-21 18:00N 50°50' W 140°02'3 0.8 999.8 16.0
2014-Sep-21 15:00N 50°52' W 140°04'1 1.3 997.5 15.9
2014-Sep-21 14:00N 50°52' W 140°06'1 1.4 996.2 15.9
2014-Sep-21 13:00N 50°52' W 140°08'2 1.0 995.6 15.9
2014-Sep-21 11:00N 50°52' W 140°11'3 0.6 996.3 15.9
2014-Sep-21 06:00N 50°49' W 140°09'1 1.4 1001.0 16.0
2014-Sep-21 05:00N 50°48' W 140°10'2 1.5 1001.6 15.9
2014-Sep-21 04:00N 50°49' W 140°09'0 0.0 1002.2 15.9
2014-Sep-21 03:00N 50°49' W 140°09'0 0.3 1003.1 16.0
2014-Sep-21 02:00N 50°49' W 140°09'1 0.9 1004.0 16.0
2014-Sep-21 01:00N 50°50' W 140°08'1 0.6 1004.2 16.0
2014-Sep-21 00:00N 50°50' W 140°09'2 1.7 1005.2 16.0
2014-Sep-20 23:00N 50°51' W 140°10'0 0.0 1006.0 16.0
2014-Sep-20 22:00N 50°51' W 140°10'1 1.1 1005.9 16.0
2014-Sep-20 21:00N 50°52' W 140°11'2 1.7 1005.8 16.0
2014-Sep-20 20:00N 50°52' W 140°13'2 2.1 1006.2 16.0
2014-Sep-20 19:00N 50°51' W 140°17'1 0.6 1006.0 16.0
2014-Sep-20 18:00N 50°51' W 140°17'0 0.0 1005.7 16.0
2014-Sep-20 17:00N 50°51' W 140°17'   1005.6 16.0

Dump ship's entire track history